sensor_id;sensor_type;location;lat;lon;timestamp;P1;durP1;ratioP1;P2;durP2;ratioP2
21448;SDS011;10885;52.830;13.788;2023-01-04T02:07:54;12.60;;;7.60;;
21448;SDS011;10885;52.830;13.788;2023-01-04T02:13:16;11.40;;;7.63;;
21448;SDS011;10885;52.830;13.788;2023-01-04T02:18:49;13.05;;;8.13;;
21448;SDS011;10885;52.830;13.788;2023-01-04T02:41:31;13.15;;;7.95;;
21448;SDS011;10885;52.830;13.788;2023-01-04T02:46:57;11.38;;;7.07;;
21448;SDS011;10885;52.830;13.788;2023-01-04T02:52:22;13.48;;;7.38;;
21448;SDS011;10885;52.830;13.788;2023-01-04T02:57:47;10.50;;;6.65;;
21448;SDS011;10885;52.830;13.788;2023-01-04T03:03:25;9.70;;;6.57;;
21448;SDS011;10885;52.830;13.788;2023-01-04T03:09:18;14.52;;;7.35;;
21448;SDS011;10885;52.830;13.788;2023-01-04T03:14:46;14.48;;;6.88;;
21448;SDS011;10885;52.830;13.788;2023-01-04T03:20:14;10.52;;;6.25;;
21448;SDS011;10885;52.830;13.788;2023-01-04T06:01:50;9.88;;;4.72;;
21448;SDS011;10885;52.830;13.788;2023-01-04T06:12:32;7.15;;;5.75;;
21448;SDS011;10885;52.830;13.788;2023-01-04T06:17:53;9.82;;;5.45;;
21448;SDS011;10885;52.830;13.788;2023-01-04T06:23:13;31.02;;;17.60;;
21448;SDS011;10885;52.830;13.788;2023-01-04T06:28:34;9.93;;;5.90;;
21448;SDS011;10885;52.830;13.788;2023-01-04T06:34:00;7.20;;;5.05;;
21448;SDS011;10885;52.830;13.788;2023-01-04T06:39:21;10.50;;;5.72;;
21448;SDS011;10885;52.830;13.788;2023-01-04T06:44:42;8.13;;;5.07;;
21448;SDS011;10885;52.830;13.788;2023-01-04T06:50:02;10.38;;;4.70;;
21448;SDS011;10885;52.830;13.788;2023-01-04T06:55:24;8.00;;;5.30;;
21448;SDS011;10885;52.830;13.788;2023-01-04T07:00:45;18.85;;;9.77;;
21448;SDS011;10885;52.830;13.788;2023-01-04T07:06:07;8.73;;;4.75;;
21448;SDS011;10885;52.830;13.788;2023-01-04T07:16:48;8.50;;;4.82;;
21448;SDS011;10885;52.830;13.788;2023-01-04T07:22:09;8.52;;;4.80;;
21448;SDS011;10885;52.830;13.788;2023-01-04T07:27:31;10.43;;;4.60;;
21448;SDS011;10885;52.830;13.788;2023-01-04T07:32:52;9.32;;;4.85;;
21448;SDS011;10885;52.830;13.788;2023-01-04T07:38:14;5.95;;;4.22;;
21448;SDS011;10885;52.830;13.788;2023-01-04T07:43:35;8.10;;;4.30;;
21448;SDS011;10885;52.830;13.788;2023-01-04T07:48:56;6.65;;;4.68;;
21448;SDS011;10885;52.830;13.788;2023-01-04T07:59:38;16.10;;;4.65;;
21448;SDS011;10885;52.830;13.788;2023-01-04T08:04:59;8.52;;;4.75;;
21448;SDS011;10885;52.830;13.788;2023-01-04T08:10:20;7.85;;;4.40;;
21448;SDS011;10885;52.830;13.788;2023-01-04T08:15:42;8.98;;;5.43;;
21448;SDS011;10885;52.830;13.788;2023-01-04T08:26:25;25.73;;;6.13;;
21448;SDS011;10885;52.830;13.788;2023-01-04T08:31:46;7.43;;;3.88;;
21448;SDS011;10885;52.830;13.788;2023-01-04T08:37:07;13.30;;;4.20;;
21448;SDS011;10885;52.830;13.788;2023-01-04T08:42:27;9.80;;;3.95;;
21448;SDS011;10885;52.830;13.788;2023-01-04T08:47:51;5.60;;;3.65;;
21448;SDS011;10885;52.830;13.788;2023-01-04T08:53:12;6.43;;;4.07;;
21448;SDS011;10885;52.830;13.788;2023-01-04T08:58:33;6.72;;;3.05;;
21448;SDS011;10885;52.830;13.788;2023-01-04T09:03:55;9.52;;;3.53;;
21448;SDS011;10885;52.830;13.788;2023-01-04T09:09:16;7.97;;;3.70;;
21448;SDS011;10885;52.830;13.788;2023-01-04T09:14:37;4.78;;;2.97;;
21448;SDS011;10885;52.830;13.788;2023-01-04T09:19:59;8.80;;;3.30;;
21448;SDS011;10885;52.830;13.788;2023-01-04T09:30:40;16.90;;;3.50;;
21448;SDS011;10885;52.830;13.788;2023-01-04T09:36:02;8.90;;;4.05;;
21448;SDS011;10885;52.830;13.788;2023-01-04T09:41:25;10.95;;;4.18;;
21448;SDS011;10885;52.830;13.788;2023-01-04T09:46:49;8.05;;;4.15;;
21448;SDS011;10885;52.830;13.788;2023-01-04T09:52:15;6.55;;;3.65;;
21448;SDS011;10885;52.830;13.788;2023-01-04T09:57:47;4.63;;;3.13;;
21448;SDS011;10885;52.830;13.788;2023-01-04T10:03:14;14.20;;;5.90;;
21448;SDS011;10885;52.830;13.788;2023-01-04T10:08:36;10.65;;;4.03;;
21448;SDS011;10885;52.830;13.788;2023-01-04T10:31:01;6.97;;;3.58;;
21448;SDS011;10885;52.830;13.788;2023-01-04T10:36:31;6.88;;;4.10;;
21448;SDS011;10885;52.830;13.788;2023-01-04T10:41:56;5.40;;;3.67;;
21448;SDS011;10885;52.830;13.788;2023-01-04T11:15:14;6.13;;;4.25;;
21448;SDS011;10885;52.830;13.788;2023-01-04T11:20:35;5.50;;;4.38;;
21448;SDS011;10885;52.830;13.788;2023-01-04T11:25:58;7.15;;;3.88;;
21448;SDS011;10885;52.830;13.788;2023-01-04T11:37:29;6.38;;;4.05;;
21448;SDS011;10885;52.830;13.788;2023-01-04T11:48:42;7.40;;;3.65;;
21448;SDS011;10885;52.830;13.788;2023-01-04T11:59:25;6.50;;;3.92;;
21448;SDS011;10885;52.830;13.788;2023-01-04T12:04:47;7.15;;;4.15;;
21448;SDS011;10885;52.830;13.788;2023-01-04T12:10:15;6.10;;;3.78;;
21448;SDS011;10885;52.830;13.788;2023-01-04T12:15:48;4.40;;;3.30;;
21448;SDS011;10885;52.830;13.788;2023-01-04T12:21:23;8.27;;;4.28;;
21448;SDS011;10885;52.830;13.788;2023-01-04T12:26:46;8.40;;;4.50;;
21448;SDS011;10885;52.830;13.788;2023-01-04T12:48:42;13.35;;;8.82;;
21448;SDS011;10885;52.830;13.788;2023-01-04T12:54:23;4.47;;;3.20;;
21448;SDS011;10885;52.830;13.788;2023-01-04T13:10:57;5.75;;;3.80;;
21448;SDS011;10885;52.830;13.788;2023-01-04T13:16:32;8.45;;;3.85;;
21448;SDS011;10885;52.830;13.788;2023-01-04T13:22:21;5.32;;;4.00;;
21448;SDS011;10885;52.830;13.788;2023-01-04T13:28:02;5.03;;;3.88;;
21448;SDS011;10885;52.830;13.788;2023-01-04T13:33:24;6.10;;;3.75;;
21448;SDS011;10885;52.830;13.788;2023-01-04T13:38:46;6.53;;;3.50;;
21448;SDS011;10885;52.830;13.788;2023-01-04T13:44:10;6.38;;;3.65;;
21448;SDS011;10885;52.830;13.788;2023-01-04T13:49:39;7.78;;;4.30;;
21448;SDS011;10885;52.830;13.788;2023-01-04T13:55:11;5.35;;;3.40;;
21448;SDS011;10885;52.830;13.788;2023-01-04T14:00:43;4.22;;;3.83;;
21448;SDS011;10885;52.830;13.788;2023-01-04T14:06:14;6.20;;;3.53;;
21448;SDS011;10885;52.830;13.788;2023-01-04T14:17:51;5.10;;;3.20;;
21448;SDS011;10885;52.830;13.788;2023-01-04T14:23:32;4.35;;;3.42;;
21448;SDS011;10885;52.830;13.788;2023-01-04T14:28:58;8.20;;;4.47;;
21448;SDS011;10885;52.830;13.788;2023-01-04T14:34:39;4.77;;;3.30;;
21448;SDS011;10885;52.830;13.788;2023-01-04T14:45:20;5.28;;;2.80;;
21448;SDS011;10885;52.830;13.788;2023-01-04T14:50:42;7.18;;;3.35;;
21448;SDS011;10885;52.830;13.788;2023-01-04T15:01:23;3.88;;;3.25;;
21448;SDS011;10885;52.830;13.788;2023-01-04T15:06:49;4.45;;;3.13;;
21448;SDS011;10885;52.830;13.788;2023-01-04T15:12:12;6.47;;;3.20;;
21448;SDS011;10885;52.830;13.788;2023-01-04T15:17:33;4.45;;;3.17;;
21448;SDS011;10885;52.830;13.788;2023-01-04T15:28:15;5.53;;;3.00;;
21448;SDS011;10885;52.830;13.788;2023-01-04T15:33:36;3.97;;;3.08;;
21448;SDS011;10885;52.830;13.788;2023-01-04T15:38:58;7.53;;;3.88;;
21448;SDS011;10885;52.830;13.788;2023-01-04T15:49:39;5.13;;;2.92;;
21448;SDS011;10885;52.830;13.788;2023-01-04T15:55:01;3.33;;;2.78;;
21448;SDS011;10885;52.830;13.788;2023-01-04T16:00:21;3.38;;;2.88;;
21448;SDS011;10885;52.830;13.788;2023-01-04T16:05:42;3.63;;;3.10;;
21448;SDS011;10885;52.830;13.788;2023-01-04T16:16:42;4.88;;;2.92;;
21448;SDS011;10885;52.830;13.788;2023-01-04T16:22:03;4.55;;;3.08;;
21448;SDS011;10885;52.830;13.788;2023-01-04T16:27:25;7.78;;;5.72;;
21448;SDS011;10885;52.830;13.788;2023-01-04T16:32:49;4.88;;;2.58;;
21448;SDS011;10885;52.830;13.788;2023-01-04T16:43:31;4.03;;;2.88;;
21448;SDS011;10885;52.830;13.788;2023-01-04T16:48:56;4.68;;;2.35;;
21448;SDS011;10885;52.830;13.788;2023-01-04T16:54:18;6.30;;;2.80;;
21448;SDS011;10885;52.830;13.788;2023-01-04T16:59:39;5.57;;;3.08;;
21448;SDS011;10885;52.830;13.788;2023-01-04T17:10:21;3.45;;;2.40;;
21448;SDS011;10885;52.830;13.788;2023-01-04T17:15:45;4.35;;;3.10;;
21448;SDS011;10885;52.830;13.788;2023-01-04T17:26:50;5.53;;;2.80;;
21448;SDS011;10885;52.830;13.788;2023-01-04T17:32:11;2.17;;;1.98;;
21448;SDS011;10885;52.830;13.788;2023-01-04T17:37:32;5.22;;;3.03;;
21448;SDS011;10885;52.830;13.788;2023-01-04T17:48:14;2.33;;;2.13;;
21448;SDS011;10885;52.830;13.788;2023-01-04T17:53:36;3.13;;;2.05;;
21448;SDS011;10885;52.830;13.788;2023-01-04T17:58:59;4.30;;;2.30;;
21448;SDS011;10885;52.830;13.788;2023-01-04T18:04:22;2.28;;;1.90;;
21448;SDS011;10885;52.830;13.788;2023-01-04T18:09:43;2.20;;;1.90;;
21448;SDS011;10885;52.830;13.788;2023-01-04T18:15:04;2.33;;;2.00;;
21448;SDS011;10885;52.830;13.788;2023-01-04T18:20:25;1.95;;;1.65;;
21448;SDS011;10885;52.830;13.788;2023-01-04T18:25:47;4.40;;;2.03;;
21448;SDS011;10885;52.830;13.788;2023-01-04T18:31:13;2.85;;;1.58;;
21448;SDS011;10885;52.830;13.788;2023-01-04T18:36:36;3.25;;;2.15;;
21448;SDS011;10885;52.830;13.788;2023-01-04T18:42:00;2.17;;;1.80;;
21448;SDS011;10885;52.830;13.788;2023-01-04T18:52:42;1.77;;;1.58;;
21448;SDS011;10885;52.830;13.788;2023-01-04T18:58:04;2.08;;;1.80;;
21448;SDS011;10885;52.830;13.788;2023-01-04T19:08:46;4.00;;;2.05;;
21448;SDS011;10885;52.830;13.788;2023-01-04T19:14:11;3.72;;;2.30;;
21448;SDS011;10885;52.830;13.788;2023-01-04T19:19:33;2.83;;;2.45;;
21448;SDS011;10885;52.830;13.788;2023-01-04T19:24:54;7.00;;;2.47;;
21448;SDS011;10885;52.830;13.788;2023-01-04T19:30:16;5.07;;;2.38;;
21448;SDS011;10885;52.830;13.788;2023-01-04T19:41:02;11.57;;;3.03;;
21448;SDS011;10885;52.830;13.788;2023-01-04T19:46:24;4.13;;;2.50;;
21448;SDS011;10885;52.830;13.788;2023-01-04T19:51:45;4.35;;;2.67;;
21448;SDS011;10885;52.830;13.788;2023-01-04T19:57:08;4.60;;;2.75;;
21448;SDS011;10885;52.830;13.788;2023-01-04T20:02:29;11.60;;;5.70;;
21448;SDS011;10885;52.830;13.788;2023-01-04T20:13:10;4.70;;;2.45;;
21448;SDS011;10885;52.830;13.788;2023-01-04T20:18:31;5.85;;;2.30;;
21448;SDS011;10885;52.830;13.788;2023-01-04T20:23:53;6.10;;;2.33;;
21448;SDS011;10885;52.830;13.788;2023-01-04T20:34:35;6.07;;;2.30;;
21448;SDS011;10885;52.830;13.788;2023-01-04T20:45:17;8.25;;;2.20;;
21448;SDS011;10885;52.830;13.788;2023-01-04T20:50:38;6.43;;;1.75;;
21448;SDS011;10885;52.830;13.788;2023-01-04T20:56:02;10.25;;;2.28;;
21448;SDS011;10885;52.830;13.788;2023-01-04T21:01:25;7.28;;;1.80;;
21448;SDS011;10885;52.830;13.788;2023-01-04T21:06:46;9.07;;;1.80;;
21448;SDS011;10885;52.830;13.788;2023-01-04T21:12:07;3.35;;;1.60;;
21448;SDS011;10885;52.830;13.788;2023-01-04T21:17:28;7.10;;;1.67;;
21448;SDS011;10885;52.830;13.788;2023-01-04T21:22:49;10.07;;;1.77;;
21448;SDS011;10885;52.830;13.788;2023-01-04T21:28:10;9.73;;;1.90;;
21448;SDS011;10885;52.830;13.788;2023-01-04T21:33:33;9.07;;;2.00;;
21448;SDS011;10885;52.830;13.788;2023-01-04T21:38:55;6.57;;;1.88;;
21448;SDS011;10885;52.830;13.788;2023-01-04T21:44:17;4.78;;;1.80;;
21448;SDS011;10885;52.830;13.788;2023-01-04T21:49:39;9.05;;;1.92;;
21448;SDS011;10885;52.830;13.788;2023-01-04T21:55:03;5.40;;;2.00;;
21448;SDS011;10885;52.830;13.788;2023-01-04T22:00:24;5.90;;;2.20;;
21448;SDS011;10885;52.830;13.788;2023-01-04T22:11:06;7.97;;;2.30;;
21448;SDS011;10885;52.830;13.788;2023-01-04T22:16:27;6.47;;;2.20;;
21448;SDS011;10885;52.830;13.788;2023-01-04T22:21:49;11.98;;;2.22;;
21448;SDS011;10885;52.830;13.788;2023-01-04T22:27:10;9.10;;;1.80;;
21448;SDS011;10885;52.830;13.788;2023-01-04T22:37:52;11.75;;;3.00;;
